createdAt,value
2018-03-03T00:01:12.561Z,53.47
2018-03-03T00:03:38.748Z,49.50
2018-03-03T00:06:05.142Z,51.13
2018-03-03T00:08:31.325Z,51.42
2018-03-03T00:10:57.544Z,50.67
2018-03-03T00:13:23.885Z,51.45
2018-03-03T00:15:50.098Z,49.63
2018-03-03T00:18:17.769Z,50.80
2018-03-03T00:20:44.689Z,51.83
2018-03-03T00:23:11.163Z,50.67
2018-03-03T00:25:37.432Z,51.20
2018-03-03T00:28:03.679Z,52.35
2018-03-03T00:30:30.409Z,50.38
2018-03-03T00:32:56.624Z,54.27
2018-03-03T00:35:22.996Z,55.12
2018-03-03T00:37:50.037Z,50.90
2018-03-03T00:40:17.221Z,53.20
2018-03-03T00:42:43.495Z,54.33
2018-03-03T00:45:09.759Z,54.03
2018-03-03T00:47:36.032Z,53.90
2018-03-03T00:50:02.395Z,53.73
2018-03-03T00:52:29.393Z,55.33
2018-03-03T00:54:55.730Z,55.90
2018-03-03T00:57:22.057Z,58.77
2018-03-03T00:59:48.345Z,54.63
2018-03-03T01:02:14.540Z,52.83
2018-03-03T01:04:40.848Z,56.60
2018-03-03T01:07:07.221Z,55.37
2018-03-03T01:09:33.516Z,54.90
2018-03-03T01:11:59.761Z,57.17
2018-03-03T01:14:26.101Z,56.13
2018-03-03T01:16:52.455Z,55.22
2018-03-03T01:19:19.079Z,54.30
2018-03-03T01:21:46.209Z,57.33
2018-03-03T01:24:12.614Z,58.53
2018-03-03T01:26:39.630Z,57.53
2018-03-03T01:29:15.864Z,53.70
2018-03-03T01:31:42.240Z,52.37
2018-03-03T01:34:08.918Z,53.58
2018-03-03T01:36:35.474Z,53.87
2018-03-03T01:39:01.720Z,56.43
2018-03-03T01:41:29.782Z,51.40
2018-03-03T01:43:56.218Z,54.57
2018-03-03T01:49:02.587Z,58.10
2018-03-03T01:51:41.075Z,59.13
2018-03-03T01:54:09.042Z,54.95
2018-03-03T01:56:35.393Z,55.92
2018-03-03T01:59:01.901Z,57.10
2018-03-03T02:01:29.022Z,57.58
2018-03-03T02:03:55.292Z,58.07
2018-03-03T02:06:21.488Z,56.50
2018-03-03T02:08:47.922Z,59.97
2018-03-03T02:11:14.373Z,56.87
2018-03-03T02:13:40.934Z,58.00
2018-03-03T02:16:09.432Z,56.93
2018-03-03T02:18:35.968Z,55.17
2018-03-03T02:21:02.348Z,55.97
2018-03-03T02:23:28.621Z,57.30
2018-03-03T02:25:55.040Z,55.33
2018-03-03T02:28:21.274Z,58.60
2018-03-03T02:30:47.529Z,58.40
2018-03-03T02:33:13.932Z,55.80
2018-03-03T02:35:49.267Z,56.07
2018-03-03T02:38:15.455Z,56.97
2018-03-03T02:40:41.668Z,59.90
2018-03-03T02:43:08.066Z,59.77
2018-03-03T02:45:34.293Z,58.10
2018-03-03T02:48:01.362Z,57.43
2018-03-03T02:50:27.770Z,60.22
2018-03-03T02:52:54.329Z,60.57
2018-03-03T02:55:20.599Z,60.13
2018-03-03T02:57:48.644Z,59.28
2018-03-03T03:00:14.867Z,55.67
2018-03-03T03:02:41.232Z,58.00
2018-03-03T03:05:07.504Z,56.20
2018-03-03T03:07:34.482Z,55.97
2018-03-03T03:10:00.693Z,56.00
2018-03-03T03:12:27.054Z,57.47
2018-03-03T03:14:53.328Z,54.83
2018-03-03T03:17:19.615Z,56.63
2018-03-03T03:19:45.950Z,56.10
2018-03-03T03:22:12.240Z,60.93
2018-03-03T03:24:38.614Z,56.63
2018-03-03T03:27:05.038Z,56.70
2018-03-03T03:29:31.428Z,56.35
2018-03-03T03:31:57.674Z,56.63
2018-03-03T03:34:24.173Z,55.53
2018-03-03T03:36:50.445Z,58.87
2018-03-03T03:39:16.694Z,53.53
2018-03-03T03:41:43.290Z,54.67
2018-03-03T03:44:10.412Z,54.10
2018-03-03T03:46:36.646Z,55.03
2018-03-03T03:49:02.986Z,56.97
2018-03-03T03:51:29.349Z,57.30
2018-03-03T03:53:55.553Z,57.00
2018-03-03T03:56:21.773Z,56.72
2018-03-03T03:58:48.818Z,58.92
2018-03-03T04:01:15.020Z,53.72
2018-03-03T04:03:41.222Z,59.53
2018-03-03T04:06:07.409Z,59.13
2018-03-03T04:08:33.625Z,58.95
2018-03-03T04:10:59.816Z,55.70
2018-03-03T04:13:26.042Z,58.63
2018-03-03T04:15:52.409Z,60.57
2018-03-03T04:18:18.707Z,54.73
2018-03-03T04:20:44.964Z,57.00
2018-03-03T04:23:11.260Z,57.33
2018-03-03T04:25:37.502Z,59.30
2018-03-03T04:28:03.800Z,59.23
2018-03-03T04:30:30.694Z,57.77
2018-03-03T04:32:56.914Z,56.63
2018-03-03T04:35:23.177Z,57.97
2018-03-03T04:37:49.554Z,57.95
2018-03-03T04:40:15.776Z,55.00
2018-03-03T04:42:42.041Z,61.07
2018-03-03T04:45:08.561Z,55.77
2018-03-03T04:47:35.697Z,54.10
2018-03-03T04:50:02.873Z,58.80
2018-03-03T04:52:29.294Z,55.57
2018-03-03T04:54:55.634Z,57.58
2018-03-03T04:57:22.792Z,59.63
2018-03-03T05:00:05.119Z,55.85
2018-03-03T05:02:48.172Z,56.33
2018-03-03T05:05:20.544Z,57.57
2018-03-03T05:07:57.461Z,56.80
2018-03-03T05:10:23.812Z,55.85
2018-03-03T05:12:51.039Z,57.35
2018-03-03T05:15:23.279Z,56.30
2018-03-03T05:21:10.265Z,55.78
2018-03-03T05:23:42.641Z,57.90
2018-03-03T05:26:13.889Z,49.72
2018-03-03T05:32:04.025Z,56.05
2018-03-03T05:34:46.154Z,56.15
2018-03-03T05:37:18.397Z,53.87
2018-03-03T05:43:18.853Z,55.43
2018-03-03T05:45:52.344Z,54.67
2018-03-03T05:48:35.195Z,54.63
2018-03-03T05:54:13.261Z,54.13
2018-03-03T05:56:56.485Z,56.80
2018-03-03T05:59:29.700Z,56.63
2018-03-03T06:02:07.013Z,56.30
2018-03-03T06:08:01.747Z,52.30
2018-03-03T06:10:29.725Z,54.38
2018-03-03T06:12:56.500Z,59.30
2018-03-03T06:15:22.824Z,59.03
2018-03-03T06:17:49.167Z,56.58
2018-03-03T06:20:15.556Z,57.63
2018-03-03T06:22:41.851Z,60.83
2018-03-03T06:25:08.856Z,53.00
2018-03-03T06:27:35.049Z,56.50
2018-03-03T06:30:01.305Z,54.88
2018-03-03T06:32:28.270Z,58.55
2018-03-03T06:34:55.258Z,54.75
2018-03-03T06:37:22.640Z,56.47
2018-03-03T06:39:49.003Z,56.13
2018-03-03T06:42:16.258Z,59.23
2018-03-03T06:44:42.482Z,54.47
2018-03-03T06:47:08.820Z,56.13
2018-03-03T06:49:36.234Z,55.33
2018-03-03T06:52:02.510Z,52.45
2018-03-03T06:54:29.455Z,51.75
2018-03-03T06:56:56.459Z,55.15
2018-03-03T06:59:22.791Z,51.22
2018-03-03T07:01:49.088Z,53.00
2018-03-03T07:04:15.391Z,51.13
2018-03-03T07:06:41.737Z,51.97
2018-03-03T07:09:07.989Z,51.10
2018-03-03T07:11:34.260Z,53.50
2018-03-03T07:14:00.756Z,54.17
2018-03-03T07:16:26.996Z,52.57
2018-03-03T07:18:53.254Z,49.80
2018-03-03T07:21:19.524Z,48.00
2018-03-03T07:23:45.817Z,48.55
2018-03-03T07:26:12.016Z,44.87
2018-03-03T07:28:38.496Z,50.13
2018-03-03T07:31:04.743Z,49.40
2018-03-03T07:33:31.166Z,46.77
2018-03-03T07:35:57.423Z,49.78
2018-03-03T07:38:24.573Z,48.30
2018-03-03T07:40:51.488Z,50.43
2018-03-03T07:43:17.708Z,46.63
2018-03-03T07:45:43.950Z,48.45
2018-03-03T07:48:10.207Z,46.67
2018-03-03T07:50:36.512Z,49.40
2018-03-03T07:53:02.761Z,49.50
2018-03-03T07:55:29.025Z,50.30
2018-03-03T07:57:55.222Z,52.23
2018-03-03T08:00:21.421Z,51.00
2018-03-03T08:02:47.656Z,53.00
2018-03-03T08:05:13.910Z,51.13
2018-03-03T08:07:40.171Z,53.20
2018-03-03T08:10:07.341Z,50.97
2018-03-03T08:12:34.255Z,56.70
2018-03-03T08:15:00.467Z,52.92
2018-03-03T08:17:26.877Z,55.07
2018-03-03T08:19:53.055Z,53.20
2018-03-03T08:22:19.292Z,52.43
2018-03-03T08:24:45.749Z,55.97
2018-03-03T08:27:11.952Z,57.55
2018-03-03T08:29:38.908Z,59.20
2018-03-03T08:32:05.990Z,58.70
2018-03-03T08:34:32.345Z,56.63
2018-03-03T08:36:58.553Z,57.78
2018-03-03T08:39:24.780Z,58.67
2018-03-03T08:41:51.257Z,53.57
2018-03-03T08:44:17.580Z,57.47
2018-03-03T08:49:17.458Z,55.80
2018-03-03T08:51:44.906Z,59.60
2018-03-03T08:54:11.125Z,58.10
2018-03-03T08:56:37.541Z,57.00
2018-03-03T08:59:03.833Z,58.75
2018-03-03T09:01:30.092Z,57.57
2018-03-03T09:03:56.341Z,57.90
2018-03-03T09:06:22.590Z,59.30
2018-03-03T09:08:50.062Z,53.60
2018-03-03T09:11:16.464Z,56.90
2018-03-03T09:13:43.503Z,56.40
2018-03-03T09:16:09.728Z,57.10
2018-03-03T09:18:36.126Z,52.67
2018-03-03T09:21:02.381Z,56.30
2018-03-03T09:23:29.523Z,53.60
2018-03-03T09:25:55.869Z,55.40
2018-03-03T09:28:22.420Z,53.80
2018-03-03T09:30:49.364Z,53.47
2018-03-03T09:33:15.636Z,52.60
2018-03-03T09:35:42.703Z,55.70
2018-03-03T09:38:08.913Z,53.10
2018-03-03T09:40:35.200Z,50.50
2018-03-03T09:43:01.575Z,52.60
2018-03-03T09:45:27.820Z,53.80
2018-03-03T09:47:54.064Z,54.60
2018-03-03T09:50:20.380Z,53.40
2018-03-03T09:52:46.555Z,54.07
2018-03-03T09:55:12.887Z,50.60
2018-03-03T09:57:39.306Z,54.53
2018-03-03T10:00:05.641Z,52.30
2018-03-03T10:02:31.853Z,53.80
2018-03-03T10:04:58.792Z,54.27
2018-03-03T10:07:25.262Z,56.97
2018-03-03T10:09:51.562Z,50.38
2018-03-03T10:12:17.736Z,53.83
2018-03-03T10:14:44.096Z,54.17
2018-03-03T10:17:11.380Z,55.70
2018-03-03T10:19:37.636Z,56.33
2018-03-03T10:22:03.862Z,51.50
2018-03-03T10:24:30.369Z,51.23
2018-03-03T10:26:56.648Z,54.07
2018-03-03T10:29:22.816Z,54.30
2018-03-03T10:31:49.473Z,54.60
2018-03-03T10:34:16.450Z,55.80
2018-03-03T10:36:42.696Z,54.03
2018-03-03T10:39:08.898Z,49.50
2018-03-03T10:41:35.118Z,53.50
2018-03-03T10:44:01.512Z,56.30
2018-03-03T10:46:27.746Z,50.83
2018-03-03T10:48:54.196Z,48.37
2018-03-03T10:51:20.432Z,53.87
2018-03-03T10:53:46.665Z,53.50
2018-03-03T10:56:13.026Z,52.07
2018-03-03T10:58:39.364Z,54.87
2018-03-03T11:01:05.513Z,57.50
2018-03-03T11:03:32.045Z,56.80
2018-03-03T11:05:58.215Z,54.20
2018-03-03T11:08:24.394Z,53.20
2018-03-03T11:10:50.707Z,54.20
2018-03-03T11:13:17.802Z,55.97
2018-03-03T11:15:44.063Z,55.53
2018-03-03T11:18:10.233Z,54.60
2018-03-03T11:20:36.433Z,52.00
2018-03-03T11:23:02.728Z,57.03
2018-03-03T11:25:29.672Z,55.97
2018-03-03T11:27:55.997Z,53.70
2018-03-03T11:30:22.217Z,51.30
2018-03-03T11:32:48.429Z,50.97
2018-03-03T11:35:15.494Z,52.10
2018-03-03T11:37:41.972Z,49.97
2018-03-03T11:40:08.193Z,55.27
2018-03-03T11:42:34.396Z,56.37
2018-03-03T11:45:00.831Z,56.80
2018-03-03T11:47:27.126Z,55.37
2018-03-03T11:49:53.251Z,53.67
2018-03-03T11:52:20.108Z,51.50
2018-03-03T11:54:46.301Z,55.60
2018-03-03T11:57:12.502Z,52.33
2018-03-03T11:59:39.557Z,55.33
2018-03-03T12:02:05.881Z,50.60
2018-03-03T12:04:32.057Z,53.20
2018-03-03T12:06:58.264Z,54.37
2018-03-03T12:09:26.226Z,57.83
2018-03-03T12:11:53.482Z,53.17
2018-03-03T12:14:19.667Z,53.47
2018-03-03T12:16:45.923Z,54.53
2018-03-03T12:19:13.050Z,54.90
2018-03-03T12:21:40.087Z,54.37
2018-03-03T12:24:06.327Z,56.00
2018-03-03T12:26:32.508Z,57.47
2018-03-03T12:29:14.788Z,49.67
2018-03-03T12:31:41.010Z,54.90
2018-03-03T12:34:07.220Z,52.40
2018-03-03T12:36:33.404Z,52.67
2018-03-03T12:38:59.879Z,52.37
2018-03-03T12:41:26.057Z,57.87
2018-03-03T12:43:52.256Z,54.50
2018-03-03T12:46:19.339Z,53.50
2018-03-03T12:48:45.572Z,60.17
2018-03-03T12:51:11.788Z,55.13
2018-03-03T12:53:38.076Z,53.90
2018-03-03T12:56:04.272Z,57.23
2018-03-03T12:58:30.564Z,53.83
2018-03-03T13:00:56.867Z,52.57
2018-03-03T13:03:23.084Z,51.03
2018-03-03T13:05:49.319Z,53.90
2018-03-03T13:08:15.627Z,57.50
2018-03-03T13:10:41.794Z,57.03
2018-03-03T13:13:08.001Z,53.80
2018-03-03T13:15:34.329Z,51.60
2018-03-03T13:18:00.627Z,54.73
2018-03-03T13:20:26.802Z,53.77
2018-03-03T13:22:53.005Z,58.30
2018-03-03T13:25:19.293Z,53.70
2018-03-03T13:27:45.512Z,53.50
2018-03-03T13:30:11.702Z,50.73
2018-03-03T13:32:38.083Z,52.97
2018-03-03T13:35:04.259Z,54.87
2018-03-03T13:37:31.161Z,54.83
2018-03-03T13:39:57.492Z,51.90
2018-03-03T13:42:23.688Z,53.70
2018-03-03T13:44:50.604Z,54.30
2018-03-03T13:47:16.763Z,53.33
2018-03-03T13:49:43.526Z,51.13
2018-03-03T13:52:10.436Z,55.23
2018-03-03T13:54:36.612Z,51.10
2018-03-03T13:57:02.924Z,53.60
2018-03-03T13:59:29.165Z,54.70
2018-03-03T14:01:55.341Z,52.90
2018-03-03T14:04:22.452Z,54.00
2018-03-03T14:06:48.695Z,52.73
2018-03-03T14:09:14.858Z,54.07
2018-03-03T14:11:41.053Z,50.43
2018-03-03T14:14:07.318Z,49.20
2018-03-03T14:16:33.621Z,53.37
2018-03-03T14:18:59.786Z,52.10
2018-03-03T14:21:26.172Z,49.87
2018-03-03T14:23:52.375Z,53.70
2018-03-03T14:26:18.564Z,52.63
2018-03-03T14:28:44.881Z,50.83
2018-03-03T14:31:11.074Z,52.97
2018-03-03T14:33:37.968Z,50.73
2018-03-03T14:36:04.390Z,53.03
2018-03-03T14:38:30.552Z,53.83
2018-03-03T14:40:56.753Z,47.10
2018-03-03T14:43:23.038Z,49.57
2018-03-03T14:45:49.276Z,52.67
2018-03-03T14:48:15.456Z,50.70
2018-03-03T14:50:41.637Z,50.67
2018-03-03T14:53:07.820Z,50.90
2018-03-03T14:55:34.782Z,50.70
2018-03-03T14:58:00.960Z,49.07
2018-03-03T15:00:27.993Z,47.97
2018-03-03T15:02:54.911Z,54.33
2018-03-03T15:05:21.348Z,45.93
2018-03-03T15:07:47.601Z,53.47
2018-03-03T15:10:13.864Z,51.27
2018-03-03T15:12:40.058Z,54.17
2018-03-03T15:15:06.229Z,48.83
2018-03-03T15:17:32.616Z,53.60
2018-03-03T15:19:58.822Z,53.37
2018-03-03T15:22:25.014Z,50.40
2018-03-03T15:24:51.367Z,51.83
2018-03-03T15:27:18.268Z,52.90
2018-03-03T15:29:45.488Z,53.90
2018-03-03T15:32:11.756Z,47.07
2018-03-03T15:34:38.024Z,51.73
2018-03-03T15:37:04.184Z,50.57
2018-03-03T15:39:30.415Z,48.67
2018-03-03T15:41:56.606Z,49.67
2018-03-03T15:44:22.810Z,47.97
2018-03-03T15:46:50.824Z,48.33
2018-03-03T15:49:17.051Z,46.93
2018-03-03T15:51:44.152Z,50.17
2018-03-03T15:54:10.323Z,50.10
2018-03-03T15:56:36.525Z,50.20
2018-03-03T15:59:02.905Z,49.53
2018-03-03T16:01:29.108Z,50.10
2018-03-03T16:03:55.276Z,48.70
2018-03-03T16:06:21.805Z,46.80
2018-03-03T16:08:47.972Z,45.30
2018-03-03T16:11:14.164Z,51.00
2018-03-03T16:13:41.268Z,48.53
2018-03-03T16:16:07.695Z,48.13
2018-03-03T16:18:33.881Z,49.67
2018-03-03T16:21:00.810Z,48.63
2018-03-03T16:23:27.233Z,51.97
2018-03-03T16:25:53.422Z,50.67
2018-03-03T16:28:19.639Z,49.30
2018-03-03T16:30:45.825Z,49.37
2018-03-03T16:33:13.196Z,50.40
2018-03-03T16:35:39.372Z,48.87
2018-03-03T16:38:05.593Z,53.53
2018-03-03T16:40:31.906Z,50.70
2018-03-03T16:42:59.196Z,51.40
2018-03-03T16:45:25.366Z,51.63
2018-03-03T16:47:51.736Z,49.60
2018-03-03T16:50:18.016Z,50.23
2018-03-03T16:52:44.267Z,51.47
2018-03-03T16:55:10.588Z,52.60
2018-03-03T16:57:36.825Z,53.27
2018-03-03T17:00:03.081Z,51.63
2018-03-03T17:02:29.264Z,54.97
2018-03-03T17:04:56.481Z,49.23
2018-03-03T17:07:22.688Z,48.90
2018-03-03T17:09:48.909Z,48.67
2018-03-03T17:12:15.418Z,49.03
2018-03-03T17:14:41.635Z,52.63
2018-03-03T17:17:08.396Z,47.90
2018-03-03T17:19:34.651Z,46.70
2018-03-03T17:22:01.037Z,48.03
2018-03-03T17:24:27.271Z,50.10
2018-03-03T17:26:53.460Z,47.97
2018-03-03T17:29:20.698Z,50.60
2018-03-03T17:31:47.492Z,47.70
2018-03-03T17:34:13.872Z,49.70
2018-03-03T17:36:40.089Z,49.35
2018-03-03T17:39:06.630Z,48.20
2018-03-03T17:41:32.868Z,49.50
2018-03-03T17:43:59.065Z,45.67
2018-03-03T17:46:25.470Z,50.20
2018-03-03T17:48:51.685Z,46.33
2018-03-03T17:51:17.884Z,46.50
2018-03-03T17:53:44.294Z,50.23
2018-03-03T17:56:10.489Z,50.85
2018-03-03T17:58:37.430Z,47.42
2018-03-03T18:01:03.689Z,49.43
2018-03-03T18:03:29.894Z,50.50
2018-03-03T18:05:56.077Z,48.47
2018-03-03T18:08:23.034Z,48.27
2018-03-03T18:10:50.128Z,52.40
2018-03-03T18:13:33.136Z,50.87
2018-03-03T18:16:00.268Z,50.53
2018-03-03T18:18:26.506Z,52.30
2018-03-03T18:20:52.709Z,47.57
2018-03-03T18:23:19.422Z,52.33
2018-03-03T18:25:45.615Z,47.67
2018-03-03T18:28:11.816Z,51.40
2018-03-03T18:30:38.749Z,51.10
2018-03-03T18:33:05.552Z,49.93
2018-03-03T18:35:31.700Z,49.87
2018-03-03T18:37:57.889Z,46.67
2018-03-03T18:40:24.309Z,46.77
2018-03-03T18:42:51.480Z,50.67
2018-03-03T18:45:17.637Z,52.33
2018-03-03T18:47:44.022Z,53.23
2018-03-03T18:50:10.246Z,48.87
2018-03-03T18:52:37.172Z,53.30
2018-03-03T18:55:03.369Z,52.70
2018-03-03T18:57:29.760Z,53.60
2018-03-03T18:59:55.980Z,51.17
2018-03-03T19:02:22.227Z,51.57
2018-03-03T19:04:48.559Z,50.13
2018-03-03T19:07:14.927Z,52.30
2018-03-03T19:09:41.317Z,51.17
2018-03-03T19:12:07.757Z,53.57
2018-03-03T19:14:33.961Z,53.13
2018-03-03T19:17:00.150Z,56.60
2018-03-03T19:19:27.218Z,54.90
2018-03-03T19:21:54.998Z,55.10
2018-03-03T19:24:22.523Z,54.43
2018-03-03T19:26:49.433Z,55.93
2018-03-03T19:29:15.618Z,54.83
2018-03-03T19:31:41.993Z,53.60
2018-03-03T19:34:08.161Z,55.57
2018-03-03T19:36:34.336Z,51.93
2018-03-03T19:39:00.542Z,53.50
2018-03-03T19:41:26.753Z,57.80
2018-03-03T19:43:53.048Z,56.37
2018-03-03T19:46:19.260Z,57.67
2018-03-03T19:48:45.452Z,57.10
2018-03-03T19:51:12.382Z,56.27
2018-03-03T19:53:39.564Z,52.23
2018-03-03T19:56:05.884Z,53.10
2018-03-03T19:58:32.065Z,55.33
2018-03-03T20:00:58.308Z,56.47
2018-03-03T20:03:25.247Z,54.47
2018-03-03T20:05:51.511Z,55.90
2018-03-03T20:08:17.730Z,56.40
2018-03-03T20:10:43.950Z,54.07
2018-03-03T20:13:10.201Z,53.77
2018-03-03T20:15:36.406Z,58.23
2018-03-03T20:18:03.370Z,55.20
2018-03-03T20:20:29.936Z,58.87
2018-03-03T20:22:56.281Z,57.80
2018-03-03T20:25:22.819Z,54.60
2018-03-03T20:27:49.071Z,57.53
2018-03-03T20:30:15.578Z,55.77
2018-03-03T20:32:41.781Z,58.00
2018-03-03T20:35:07.964Z,56.10
2018-03-03T20:37:34.274Z,53.90
2018-03-03T20:40:01.209Z,57.10
2018-03-03T20:42:28.232Z,58.60
2018-03-03T20:44:54.491Z,56.93
2018-03-03T20:47:20.846Z,56.90
2018-03-03T20:49:47.958Z,56.47
2018-03-03T20:52:14.216Z,59.90
2018-03-03T20:54:40.642Z,55.30
2018-03-03T20:57:06.865Z,56.10
2018-03-03T20:59:33.107Z,54.63
2018-03-03T21:02:00.048Z,56.97
2018-03-03T21:04:26.381Z,57.97
2018-03-03T21:06:53.168Z,54.20
2018-03-03T21:09:19.420Z,55.53
2018-03-03T21:11:54.636Z,59.00
2018-03-03T21:14:22.161Z,57.80
2018-03-03T21:16:48.440Z,55.10
2018-03-03T21:19:14.724Z,57.20
2018-03-03T21:21:41.010Z,56.50
2018-03-03T21:24:07.432Z,56.70
2018-03-03T21:26:38.145Z,56.87
2018-03-03T21:29:05.561Z,55.23
2018-03-03T21:31:31.826Z,59.37
2018-03-03T21:33:58.128Z,57.17
2018-03-03T21:36:24.637Z,58.90
2018-03-03T21:38:50.833Z,59.70
2018-03-03T21:41:17.014Z,57.40
2018-03-03T21:43:43.439Z,56.90
2018-03-03T21:46:09.639Z,57.47
2018-03-03T21:48:35.852Z,55.73
2018-03-03T21:51:02.410Z,60.20
2018-03-03T21:53:28.746Z,61.73
2018-03-03T21:55:55.018Z,58.57
2018-03-03T21:58:21.224Z,60.77
2018-03-03T22:00:47.877Z,60.30
2018-03-03T22:03:14.881Z,61.33
2018-03-03T22:05:41.153Z,60.73
2018-03-03T22:08:07.412Z,58.70
2018-03-03T22:10:34.514Z,60.10
2018-03-03T22:13:00.708Z,63.13
2018-03-03T22:15:26.917Z,62.17
2018-03-03T22:17:53.313Z,58.80
2018-03-03T22:20:20.306Z,62.03
2018-03-03T22:22:46.513Z,57.87
2018-03-03T22:25:13.497Z,60.43
2018-03-03T22:27:39.885Z,65.17
2018-03-03T22:30:07.120Z,64.03
2018-03-03T22:32:33.357Z,65.07
2018-03-03T22:34:59.652Z,65.57
2018-03-03T22:37:25.938Z,64.47
2018-03-03T22:39:52.178Z,68.23
2018-03-03T22:42:18.384Z,58.80
2018-03-03T22:44:45.475Z,65.27
2018-03-03T22:47:12.024Z,57.83
2018-03-03T22:49:38.958Z,64.47
2018-03-03T22:52:05.912Z,65.40
2018-03-03T22:54:32.381Z,64.10
2018-03-03T22:56:58.588Z,60.07
2018-03-03T22:59:24.804Z,63.53
2018-03-03T23:01:51.221Z,65.40
2018-03-03T23:04:17.420Z,60.60
2018-03-03T23:06:44.380Z,65.47
2018-03-03T23:09:10.592Z,68.50
2018-03-03T23:11:36.803Z,61.80
2018-03-03T23:14:03.012Z,66.43
2018-03-03T23:16:29.954Z,66.50
2018-03-03T23:18:56.257Z,62.23
2018-03-03T23:21:22.480Z,61.63
2018-03-03T23:23:48.718Z,62.87
2018-03-03T23:26:15.059Z,63.17
2018-03-03T23:28:41.344Z,63.50
2018-03-03T23:31:07.530Z,64.70
2018-03-03T23:33:33.788Z,66.17
2018-03-03T23:36:00.007Z,63.00
2018-03-03T23:38:26.232Z,56.40
2018-03-03T23:40:53.203Z,63.17
2018-03-03T23:43:20.434Z,64.03
2018-03-03T23:45:47.409Z,65.40
2018-03-03T23:48:13.592Z,66.87
2018-03-03T23:50:39.952Z,66.83
2018-03-03T23:53:06.230Z,65.73
2018-03-03T23:55:33.176Z,62.23
2018-03-03T23:58:00.301Z,62.07
